createdAt,value
2023-05-17T00:00:25.650Z,3.95
2023-05-17T00:02:27.145Z,4.18
2023-05-17T00:04:28.794Z,4.85
2023-05-17T00:06:31.867Z,3.90
2023-05-17T00:08:33.448Z,4.40
2023-05-17T00:10:35.111Z,3.55
2023-05-17T00:12:36.621Z,3.40
2023-05-17T00:14:38.142Z,3.92
2023-05-17T00:16:39.987Z,3.83
2023-05-17T00:18:41.624Z,4.30
2023-05-17T00:20:43.249Z,4.43
2023-05-17T00:22:46.111Z,3.65
2023-05-17T00:24:47.580Z,3.95
2023-05-17T00:26:49.103Z,4.05
2023-05-17T00:28:50.644Z,3.55
2023-05-17T00:30:52.195Z,3.75
2023-05-17T00:32:53.799Z,2.97
2023-05-17T00:34:55.422Z,3.70
2023-05-17T00:36:57.059Z,3.47
2023-05-17T00:38:58.574Z,3.05
2023-05-17T00:41:00.054Z,3.97
2023-05-17T00:43:01.546Z,3.13
2023-05-17T00:45:03.328Z,3.40
2023-05-17T00:47:04.994Z,4.75
2023-05-17T00:49:06.770Z,3.08
2023-05-17T00:51:08.504Z,3.42
2023-05-17T00:53:16.130Z,2.95
2023-05-17T00:55:19.743Z,3.20
2023-05-17T00:57:21.470Z,3.50
2023-05-17T00:59:23.407Z,3.08
2023-05-17T01:01:26.272Z,4.25
2023-05-17T01:03:28.186Z,2.50
2023-05-17T01:05:30.792Z,3.58
2023-05-17T01:07:32.450Z,3.22
2023-05-17T01:09:34.141Z,2.92
2023-05-17T01:11:52.920Z,3.20
2023-05-17T01:14:15.188Z,2.83
2023-05-17T01:16:25.700Z,3.50
2023-05-17T01:18:39.584Z,2.70
2023-05-17T01:20:43.994Z,3.05
2023-05-17T01:22:53.628Z,3.88
2023-05-17T01:25:12.251Z,2.78
2023-05-17T01:27:16.031Z,2.53
2023-05-17T01:29:23.131Z,3.30
2023-05-17T01:31:25.972Z,2.70
2023-05-17T01:33:27.781Z,2.58
2023-05-17T01:35:29.662Z,3.55
2023-05-17T01:37:31.490Z,2.88
2023-05-17T01:39:33.092Z,3.45
2023-05-17T01:41:40.265Z,4.03
2023-05-17T01:43:50.597Z,2.95
2023-05-17T01:46:12.725Z,3.10
2023-05-17T01:48:21.507Z,2.83
2023-05-17T01:52:38.112Z,3.03
2023-05-17T01:55:04.174Z,3.13
2023-05-17T01:57:07.674Z,2.63
2023-05-17T01:59:11.582Z,2.50
2023-05-17T02:01:16.075Z,3.15
2023-05-17T02:03:18.706Z,3.05
2023-05-17T02:05:20.360Z,2.63
2023-05-17T02:07:21.919Z,2.72
2023-05-17T02:09:23.457Z,2.28
2023-05-17T02:11:24.975Z,2.65
2023-05-17T02:13:26.481Z,2.85
2023-05-17T02:15:28.114Z,2.75
2023-05-17T02:17:29.804Z,2.83
2023-05-17T02:19:32.193Z,2.67
2023-05-17T02:21:33.708Z,3.25
2023-05-17T02:23:35.857Z,3.13
2023-05-17T02:25:37.343Z,3.10
2023-05-17T02:27:38.928Z,3.15
2023-05-17T02:29:40.428Z,2.92
2023-05-17T02:31:41.987Z,2.85
2023-05-17T02:33:43.603Z,2.33
2023-05-17T02:35:45.165Z,3.83
2023-05-17T02:37:46.677Z,2.92
2023-05-17T02:39:48.259Z,2.50
2023-05-17T02:41:49.723Z,2.72
2023-05-17T02:43:51.319Z,2.72
2023-05-17T02:45:52.838Z,2.70
2023-05-17T02:47:54.394Z,3.13
2023-05-17T02:49:56.123Z,2.97
2023-05-17T02:51:57.596Z,2.42
2023-05-17T02:53:59.091Z,2.95
2023-05-17T02:56:00.644Z,2.10
2023-05-17T02:58:02.182Z,2.40
2023-05-17T03:00:04.124Z,2.47
2023-05-17T03:02:05.784Z,2.60
2023-05-17T03:04:07.405Z,2.33
2023-05-17T03:06:08.974Z,2.80
2023-05-17T03:08:10.455Z,2.50
2023-05-17T03:10:11.987Z,3.17
2023-05-17T03:12:13.462Z,2.70
2023-05-17T03:14:14.932Z,2.45
2023-05-17T03:16:16.389Z,2.15
2023-05-17T03:18:18.052Z,2.67
2023-05-17T03:20:19.622Z,2.92
2023-05-17T03:22:21.138Z,2.35
2023-05-17T03:24:22.644Z,2.40
2023-05-17T03:26:24.975Z,2.42
2023-05-17T03:28:26.489Z,2.17
2023-05-17T03:30:28.105Z,2.65
2023-05-17T03:32:29.840Z,1.92
2023-05-17T03:34:31.407Z,2.70
2023-05-17T03:36:34.837Z,2.67
2023-05-17T03:38:36.856Z,2.05
2023-05-17T03:40:38.393Z,2.50
2023-05-17T03:42:39.876Z,1.67
2023-05-17T03:44:41.373Z,2.88
2023-05-17T03:46:42.927Z,2.47
2023-05-17T03:48:44.407Z,2.22
2023-05-17T03:50:46.084Z,2.70
2023-05-17T03:52:47.565Z,2.33
2023-05-17T03:54:49.112Z,2.30
2023-05-17T03:56:50.627Z,2.72
2023-05-17T03:58:52.366Z,2.03
2023-05-17T04:00:53.859Z,2.20
2023-05-17T04:02:55.502Z,2.03
2023-05-17T04:04:57.072Z,1.67
2023-05-17T04:06:58.646Z,2.38
2023-05-17T04:09:00.151Z,2.47
2023-05-17T04:11:10.633Z,2.30
2023-05-17T04:13:12.224Z,2.47
2023-05-17T04:15:13.768Z,2.42
2023-05-17T04:17:16.864Z,2.58
2023-05-17T04:19:18.677Z,2.22
2023-05-17T04:21:20.731Z,2.03
2023-05-17T04:23:22.308Z,2.50
2023-05-17T04:25:24.646Z,1.83
2023-05-17T04:27:26.241Z,2.15
2023-05-17T04:29:27.715Z,2.08
2023-05-17T04:31:32.593Z,1.80
2023-05-17T04:33:34.511Z,1.83
2023-05-17T04:35:37.711Z,3.15
2023-05-17T04:37:40.261Z,2.63
2023-05-17T04:39:41.802Z,1.88
2023-05-17T04:41:43.324Z,2.97
2023-05-17T04:43:44.942Z,1.77
2023-05-17T04:45:46.839Z,1.92
2023-05-17T04:47:50.353Z,1.80
2023-05-17T04:49:51.949Z,1.58
2023-05-17T04:51:53.432Z,3.15
2023-05-17T04:53:54.922Z,1.73
2023-05-17T04:55:57.525Z,1.63
2023-05-17T04:57:59.005Z,1.60
2023-05-17T05:00:05.403Z,1.30
2023-05-17T05:02:07.565Z,1.83
2023-05-17T05:04:09.155Z,1.27
2023-05-17T05:06:14.530Z,1.80
2023-05-17T05:08:16.131Z,1.58
2023-05-17T05:10:17.762Z,1.75
2023-05-17T05:12:19.322Z,1.88
2023-05-17T05:14:20.793Z,1.65
2023-05-17T05:16:22.362Z,1.67
2023-05-17T05:18:23.928Z,2.17
2023-05-17T05:20:27.835Z,1.67
2023-05-17T05:22:29.681Z,1.83
2023-05-17T05:24:31.181Z,1.65
2023-05-17T05:26:32.955Z,1.52
2023-05-17T05:28:34.453Z,1.17
2023-05-17T05:30:36.290Z,1.58
2023-05-17T05:32:40.590Z,2.00
2023-05-17T05:34:42.194Z,1.40
2023-05-17T05:36:44.131Z,1.33
2023-05-17T05:38:45.642Z,1.70
2023-05-17T05:40:48.252Z,1.45
2023-05-17T05:42:49.826Z,1.50
2023-05-17T05:44:51.281Z,1.45
2023-05-17T05:46:52.819Z,1.77
2023-05-17T05:48:54.352Z,1.67
2023-05-17T05:50:55.860Z,1.58
2023-05-17T05:53:14.489Z,1.70
2023-05-17T05:55:19.476Z,1.77
2023-05-17T05:57:21.009Z,2.33
2023-05-17T05:59:22.485Z,1.95
2023-05-17T06:01:25.275Z,2.28
2023-05-17T06:03:26.876Z,1.80
2023-05-17T06:05:28.624Z,2.03
2023-05-17T06:07:30.211Z,1.80
2023-05-17T06:09:31.700Z,2.67
2023-05-17T06:11:33.241Z,1.92
2023-05-17T06:13:34.867Z,1.88
2023-05-17T06:15:36.624Z,3.47
2023-05-17T06:17:38.225Z,2.22
2023-05-17T06:19:39.947Z,2.65
2023-05-17T06:21:41.564Z,2.70
2023-05-17T06:23:43.033Z,1.73
2023-05-17T06:25:44.560Z,2.38
2023-05-17T06:27:46.240Z,2.72
2023-05-17T06:29:47.797Z,2.25
2023-05-17T06:31:49.390Z,2.53
2023-05-17T06:33:50.929Z,2.30
2023-05-17T06:35:56.336Z,1.98
2023-05-17T06:37:58.859Z,2.08
2023-05-17T06:40:14.816Z,2.33
2023-05-17T06:42:17.427Z,2.08
2023-05-17T06:44:19.028Z,1.55
2023-05-17T06:46:20.564Z,1.75
2023-05-17T06:48:22.242Z,2.20
2023-05-17T06:50:23.786Z,2.50
2023-05-17T06:52:25.490Z,1.90
2023-05-17T06:54:26.971Z,2.50
2023-05-17T06:56:28.784Z,1.90
2023-05-17T06:58:30.302Z,2.28
2023-05-17T07:00:32.581Z,2.10
2023-05-17T07:02:34.894Z,1.98
2023-05-17T07:04:36.707Z,1.88
2023-05-17T07:06:38.323Z,1.90
2023-05-17T07:08:40.556Z,1.90
2023-05-17T07:10:42.204Z,2.42
2023-05-17T07:12:43.718Z,2.63
2023-05-17T07:14:45.212Z,2.20
2023-05-17T07:16:47.930Z,2.25
2023-05-17T07:18:49.468Z,2.13
2023-05-17T07:20:50.992Z,2.00
2023-05-17T07:22:52.505Z,2.25
2023-05-17T07:24:54.020Z,2.45
2023-05-17T07:26:55.612Z,2.28
2023-05-17T07:28:57.137Z,2.10
2023-05-17T07:30:58.706Z,2.40
2023-05-17T07:33:00.596Z,2.50
2023-05-17T07:35:03.099Z,2.03
2023-05-17T07:37:04.919Z,2.25
2023-05-17T07:39:06.490Z,2.17
2023-05-17T07:41:09.725Z,1.67
2023-05-17T07:43:11.417Z,2.53
2023-05-17T07:45:13.034Z,1.65
2023-05-17T07:47:14.922Z,2.33
2023-05-17T07:49:16.513Z,2.65
2023-05-17T07:51:18.147Z,2.25
2023-05-17T07:53:19.607Z,2.05
2023-05-17T07:55:21.443Z,2.25
2023-05-17T07:57:22.940Z,2.08
2023-05-17T07:59:24.764Z,1.77
2023-05-17T08:01:26.793Z,1.90
2023-05-17T08:03:28.743Z,2.25
2023-05-17T08:05:30.732Z,2.13
2023-05-17T08:07:32.427Z,1.55
2023-05-17T08:09:33.913Z,1.77
2023-05-17T08:11:35.449Z,1.75
2023-05-17T08:13:37.335Z,1.70
2023-05-17T08:15:38.820Z,1.90
2023-05-17T08:17:40.405Z,1.73
2023-05-17T08:19:42.100Z,1.55
2023-05-17T08:21:44.384Z,1.50
2023-05-17T08:23:46.314Z,0.98
2023-05-17T08:25:47.856Z,1.52
2023-05-17T08:27:49.333Z,1.73
2023-05-17T08:29:51.802Z,1.33
2023-05-17T08:31:54.847Z,3.47
2023-05-17T08:33:56.356Z,2.67
2023-05-17T08:36:00.940Z,1.48
2023-05-17T08:38:02.503Z,1.23
2023-05-17T08:40:06.410Z,1.27
2023-05-17T08:42:08.431Z,1.20
2023-05-17T08:44:11.328Z,1.40
2023-05-17T08:46:14.639Z,1.55
2023-05-17T08:48:17.568Z,1.52
2023-05-17T08:50:19.297Z,1.92
2023-05-17T08:52:21.883Z,1.35
2023-05-17T08:54:23.382Z,1.48
2023-05-17T08:56:26.553Z,1.25
2023-05-17T08:58:32.482Z,1.27
2023-05-17T09:00:38.212Z,1.90
2023-05-17T09:02:42.766Z,1.30
2023-05-17T09:04:44.993Z,1.02
2023-05-17T09:06:47.080Z,1.38
2023-05-17T09:08:52.766Z,1.75
2023-05-17T09:10:54.495Z,1.60
2023-05-17T09:12:56.374Z,1.75
2023-05-17T09:15:12.846Z,1.30
2023-05-17T09:17:18.531Z,1.45
2023-05-17T09:19:20.121Z,1.77
2023-05-17T09:21:23.712Z,1.55
2023-05-17T09:23:25.219Z,1.33
2023-05-17T09:25:26.942Z,1.63
2023-05-17T09:27:31.655Z,1.90
2023-05-17T09:29:34.051Z,1.50
2023-05-17T09:31:35.985Z,1.10
2023-05-17T09:33:47.799Z,1.20
2023-05-17T09:35:49.421Z,1.55
2023-05-17T09:37:51.174Z,1.45
2023-05-17T09:39:54.944Z,1.30
2023-05-17T09:41:57.130Z,1.80
2023-05-17T09:44:01.102Z,1.40
2023-05-17T09:46:02.596Z,1.42
2023-05-17T09:48:17.600Z,1.67
2023-05-17T09:50:23.799Z,1.55
2023-05-17T09:52:37.030Z,1.80
2023-05-17T09:54:41.269Z,1.23
2023-05-17T09:56:43.214Z,1.48
2023-05-17T09:58:44.873Z,1.63
2023-05-17T10:00:52.220Z,1.30
2023-05-17T10:02:53.856Z,1.63
2023-05-17T10:04:57.234Z,1.25
2023-05-17T10:07:00.293Z,1.20
2023-05-17T10:09:02.405Z,1.20
2023-05-17T10:11:08.566Z,1.85
2023-05-17T10:13:15.689Z,1.73
2023-05-17T10:15:18.505Z,1.65
2023-05-17T10:17:20.388Z,1.70
2023-05-17T10:19:23.797Z,1.90
2023-05-17T10:21:25.935Z,1.90
2023-05-17T10:23:27.915Z,1.50
2023-05-17T10:25:30.204Z,1.55
2023-05-17T10:27:32.134Z,1.65
2023-05-17T10:29:37.014Z,1.80
2023-05-17T10:31:43.162Z,1.73
2023-05-17T10:33:50.630Z,1.63
2023-05-17T10:35:53.301Z,1.40
2023-05-17T10:37:54.868Z,1.30
2023-05-17T10:39:57.074Z,1.30
2023-05-17T10:42:13.577Z,1.70
2023-05-17T10:44:16.776Z,1.80
2023-05-17T10:46:22.699Z,1.88
2023-05-17T10:48:28.466Z,1.10
2023-05-17T10:50:30.457Z,1.83
2023-05-17T10:52:32.187Z,1.55
2023-05-17T10:54:39.329Z,1.55
2023-05-17T10:56:47.480Z,1.40
2023-05-17T10:59:08.940Z,1.50
2023-05-17T11:01:11.216Z,1.20
2023-05-17T11:03:30.770Z,1.42
2023-05-17T11:05:32.669Z,1.00
2023-05-17T11:07:37.479Z,0.98
2023-05-17T11:09:40.668Z,1.33
2023-05-17T11:12:05.424Z,1.10
2023-05-17T11:14:11.485Z,1.48
2023-05-17T11:16:19.020Z,1.13
2023-05-17T11:18:30.116Z,1.40
2023-05-17T11:20:35.068Z,1.20
2023-05-17T11:22:39.992Z,1.40
2023-05-17T11:24:44.543Z,1.33
2023-05-17T11:26:46.393Z,1.45
2023-05-17T11:28:48.201Z,1.88
2023-05-17T11:30:53.699Z,1.80
2023-05-17T11:33:02.959Z,1.83
2023-05-17T11:35:05.462Z,1.70
2023-05-17T11:37:11.948Z,1.70
2023-05-17T11:39:17.202Z,1.40
2023-05-17T11:43:31.188Z,1.75
2023-05-17T11:45:42.342Z,1.52
2023-05-17T11:47:48.284Z,1.40
2023-05-17T11:49:54.352Z,1.50
2023-05-17T11:51:57.801Z,1.83
2023-05-17T11:54:03.445Z,1.20
2023-05-17T11:56:05.679Z,2.25
2023-05-17T11:58:11.959Z,1.50
2023-05-17T12:00:14.108Z,1.17
2023-05-17T12:02:30.073Z,1.65
2023-05-17T12:04:37.452Z,1.35
2023-05-17T12:06:39.990Z,1.80
2023-05-17T12:08:46.769Z,1.40
2023-05-17T12:10:52.619Z,1.73
2023-05-17T12:12:54.205Z,1.92
2023-05-17T12:14:55.957Z,1.08
2023-05-17T12:17:00.816Z,1.40
2023-05-17T12:19:02.609Z,1.40
2023-05-17T12:21:05.876Z,1.42
2023-05-17T12:23:07.382Z,1.88
2023-05-17T12:25:20.061Z,1.42
2023-05-17T12:27:27.642Z,1.70
2023-05-17T12:29:30.225Z,1.58
2023-05-17T12:31:36.638Z,1.40
2023-05-17T12:33:43.284Z,2.17
2023-05-17T12:35:45.449Z,1.90
2023-05-17T12:37:47.263Z,1.85
2023-05-17T12:39:49.107Z,2.00
2023-05-17T12:41:52.097Z,1.58
2023-05-17T12:44:06.259Z,1.30
2023-05-17T12:46:20.501Z,1.60
2023-05-17T12:48:26.525Z,1.38
2023-05-17T12:50:31.781Z,1.50
2023-05-17T12:52:35.178Z,2.30
2023-05-17T12:54:39.450Z,1.40
2023-05-17T12:56:44.817Z,2.03
2023-05-17T12:59:12.256Z,1.88
2023-05-17T13:01:14.727Z,1.67
2023-05-17T13:03:16.363Z,1.35
2023-05-17T13:05:21.432Z,1.67
2023-05-17T13:07:24.239Z,1.50
2023-05-17T13:09:30.785Z,1.52
2023-05-17T13:11:32.452Z,1.55
2023-05-17T13:13:34.295Z,1.45
2023-05-17T13:15:36.061Z,1.40
2023-05-17T13:17:40.585Z,1.55
2023-05-17T13:19:42.778Z,1.80
2023-05-17T13:21:44.382Z,1.50
2023-05-17T13:23:50.077Z,2.00
2023-05-17T13:25:51.706Z,1.85
2023-05-17T13:27:55.358Z,1.60
2023-05-17T13:29:56.863Z,2.15
2023-05-17T13:31:58.365Z,1.70
2023-05-17T13:34:00.033Z,1.70
2023-05-17T13:36:01.642Z,1.88
2023-05-17T13:38:03.195Z,1.83
2023-05-17T13:40:05.242Z,2.95
2023-05-17T13:42:06.828Z,1.60
2023-05-17T13:44:08.907Z,1.52
2023-05-17T13:46:10.511Z,1.48
2023-05-17T13:48:12.163Z,2.25
2023-05-17T13:50:17.228Z,1.65
2023-05-17T13:52:18.937Z,1.88
2023-05-17T13:54:20.793Z,1.63
2023-05-17T13:56:23.697Z,1.50
2023-05-17T13:58:25.273Z,1.40
2023-05-17T14:00:27.021Z,1.70
2023-05-17T14:02:28.639Z,1.45
2023-05-17T14:04:30.207Z,1.38
2023-05-17T14:06:31.823Z,1.75
2023-05-17T14:08:34.184Z,1.10
2023-05-17T14:10:36.480Z,1.70
2023-05-17T14:12:38.789Z,1.38
2023-05-17T14:14:40.304Z,1.67
2023-05-17T14:16:41.866Z,1.80
2023-05-17T14:18:43.565Z,1.65
2023-05-17T14:20:45.192Z,1.20
2023-05-17T14:22:46.708Z,1.52
2023-05-17T14:24:48.249Z,1.50
2023-05-17T14:26:49.761Z,1.20
2023-05-17T14:28:51.391Z,1.88
2023-05-17T14:30:53.290Z,1.30
2023-05-17T14:32:54.867Z,1.33
2023-05-17T14:34:56.465Z,1.27
2023-05-17T14:36:57.945Z,1.25
2023-05-17T14:38:59.523Z,1.48
2023-05-17T14:41:02.253Z,1.73
2023-05-17T14:43:03.894Z,1.65
2023-05-17T14:45:06.681Z,1.33
2023-05-17T14:47:08.545Z,1.95
2023-05-17T14:49:10.282Z,1.50
2023-05-17T14:51:12.261Z,1.42
2023-05-17T14:53:13.831Z,1.42
2023-05-17T14:55:16.819Z,1.50
2023-05-17T14:57:18.716Z,1.60
2023-05-17T14:59:20.591Z,1.73
2023-05-17T15:01:22.520Z,1.80
2023-05-17T15:03:24.052Z,2.40
2023-05-17T15:05:25.778Z,1.52
2023-05-17T15:07:27.445Z,2.33
2023-05-17T15:09:30.959Z,1.67
2023-05-17T15:11:33.679Z,1.42
2023-05-17T15:13:35.199Z,1.63
2023-05-17T15:15:36.809Z,1.35
2023-05-17T15:17:38.435Z,1.35
2023-05-17T15:19:40.057Z,1.20
2023-05-17T15:21:42.681Z,1.77
2023-05-17T15:23:44.478Z,1.58
2023-05-17T15:25:46.439Z,1.15
2023-05-17T15:27:49.127Z,1.52
2023-05-17T15:29:50.596Z,2.10
2023-05-17T15:31:52.250Z,1.35
2023-05-17T15:33:53.902Z,2.03
2023-05-17T15:35:55.531Z,1.83
2023-05-17T15:37:59.347Z,1.95
2023-05-17T15:40:10.814Z,1.52
2023-05-17T15:42:12.308Z,1.33
2023-05-17T15:44:13.876Z,1.75
2023-05-17T15:46:15.442Z,1.13
2023-05-17T15:48:17.992Z,1.33
2023-05-17T15:50:19.577Z,1.30
2023-05-17T15:52:21.052Z,1.40
2023-05-17T15:54:22.529Z,1.05
2023-05-17T15:56:24.429Z,1.17
2023-05-17T15:58:32.910Z,1.20
2023-05-17T16:00:34.416Z,1.20
2023-05-17T16:02:36.131Z,1.40
2023-05-17T16:04:37.939Z,1.50
2023-05-17T16:06:39.732Z,1.42
2023-05-17T16:08:41.932Z,1.20
2023-05-17T16:10:44.071Z,1.40
2023-05-17T16:12:47.361Z,1.48
2023-05-17T16:14:48.914Z,1.17
2023-05-17T16:16:51.222Z,1.08
2023-05-17T16:18:52.863Z,1.20
2023-05-17T16:21:03.653Z,1.77
2023-05-17T16:23:06.077Z,1.92
2023-05-17T16:25:07.715Z,1.75
2023-05-17T16:27:09.365Z,1.80
2023-05-17T16:29:13.565Z,1.55
2023-05-17T16:31:15.188Z,1.70
2023-05-17T16:33:16.814Z,2.00
2023-05-17T16:35:22.168Z,2.63
2023-05-17T16:37:23.829Z,2.28
2023-05-17T16:39:27.148Z,2.38
2023-05-17T16:41:31.301Z,1.63
2023-05-17T16:43:32.924Z,1.75
2023-05-17T16:45:34.725Z,1.55
2023-05-17T16:47:36.445Z,2.17
2023-05-17T16:49:38.686Z,1.40
2023-05-17T16:51:40.333Z,2.35
2023-05-17T16:53:42.126Z,2.25
2023-05-17T16:55:43.718Z,2.42
2023-05-17T16:57:45.233Z,1.88
2023-05-17T16:59:46.696Z,2.20
2023-05-17T17:01:48.253Z,1.60
2023-05-17T17:03:49.884Z,1.42
2023-05-17T17:05:51.449Z,1.70
2023-05-17T17:07:53.311Z,1.25
2023-05-17T17:09:54.791Z,1.50
2023-05-17T17:11:56.307Z,1.40
2023-05-17T17:13:58.668Z,1.42
2023-05-17T17:16:00.270Z,1.83
2023-05-17T17:18:02.007Z,1.35
2023-05-17T17:20:09.055Z,1.50
2023-05-17T17:22:12.101Z,1.38
2023-05-17T17:24:13.706Z,1.20
2023-05-17T17:26:15.996Z,1.52
2023-05-17T17:28:17.506Z,1.20
2023-05-17T17:30:19.113Z,1.58
2023-05-17T17:32:20.674Z,1.30
2023-05-17T17:34:22.206Z,1.05
2023-05-17T17:36:27.040Z,0.95
2023-05-17T17:38:28.605Z,1.45
2023-05-17T17:40:30.507Z,1.40
2023-05-17T17:42:32.409Z,1.13
2023-05-17T17:44:33.904Z,1.40
2023-05-17T17:46:35.528Z,1.35
2023-05-17T17:48:37.119Z,0.80
2023-05-17T17:50:38.648Z,1.38
2023-05-17T17:52:40.219Z,0.95
2023-05-17T17:54:42.486Z,1.08
2023-05-17T17:56:45.485Z,1.35
2023-05-17T17:58:48.143Z,1.23
2023-05-17T18:00:49.686Z,1.88
2023-05-17T18:02:51.466Z,1.63
2023-05-17T18:04:53.097Z,1.42
2023-05-17T18:06:55.001Z,1.65
2023-05-17T18:08:57.791Z,1.40
2023-05-17T18:10:59.309Z,1.83
2023-05-17T18:13:00.976Z,1.25
2023-05-17T18:15:02.738Z,1.40
2023-05-17T18:17:04.497Z,1.30
2023-05-17T18:19:06.122Z,1.60
2023-05-17T18:21:09.279Z,1.58
2023-05-17T18:23:10.938Z,1.50
2023-05-17T18:25:12.465Z,1.30
2023-05-17T18:27:14.308Z,1.35
2023-05-17T18:29:15.873Z,1.05
2023-05-17T18:31:18.515Z,1.85
2023-05-17T18:33:20.417Z,1.55
2023-05-17T18:35:22.046Z,1.42
2023-05-17T18:37:23.601Z,1.38
2023-05-17T18:39:25.117Z,1.20
2023-05-17T18:41:27.154Z,1.77
2023-05-17T18:43:31.080Z,1.63
2023-05-17T18:45:36.256Z,1.80
2023-05-17T18:47:37.833Z,1.83
2023-05-17T18:49:44.944Z,1.65
2023-05-17T18:51:46.696Z,1.30
2023-05-17T18:53:48.230Z,1.85
2023-05-17T18:55:49.751Z,1.17
2023-05-17T18:57:51.269Z,2.08
2023-05-17T18:59:52.829Z,1.40
2023-05-17T19:01:54.435Z,1.25
2023-05-17T19:03:56.482Z,1.48
2023-05-17T19:05:58.084Z,1.40
2023-05-17T19:07:59.772Z,1.50
2023-05-17T19:10:01.655Z,1.85
2023-05-17T19:12:03.515Z,1.50
2023-05-17T19:14:05.801Z,1.65
2023-05-17T19:16:07.626Z,1.95
2023-05-17T19:18:09.140Z,2.08
2023-05-17T19:20:11.050Z,1.85
2023-05-17T19:22:12.962Z,1.40
2023-05-17T19:24:14.537Z,1.70
2023-05-17T19:26:16.212Z,1.88
2023-05-17T19:28:18.044Z,1.40
2023-05-17T19:30:19.527Z,1.63
2023-05-17T19:32:22.755Z,1.60
2023-05-17T19:34:24.323Z,1.45
2023-05-17T19:36:25.964Z,1.70
2023-05-17T19:38:27.514Z,0.98
2023-05-17T19:40:29.198Z,1.63
2023-05-17T19:42:30.915Z,1.15
2023-05-17T19:44:32.574Z,2.25
2023-05-17T19:46:34.195Z,1.40
2023-05-17T19:48:36.000Z,1.20
2023-05-17T19:50:37.723Z,1.63
2023-05-17T19:52:39.394Z,1.33
2023-05-17T19:54:41.152Z,1.42
2023-05-17T19:56:42.666Z,1.50
2023-05-17T19:58:44.205Z,1.63
2023-05-17T20:00:45.866Z,1.60
2023-05-17T20:02:47.474Z,1.27
2023-05-17T20:04:49.210Z,1.08
2023-05-17T20:06:51.130Z,1.60
2023-05-17T20:08:52.633Z,1.23
2023-05-17T20:10:54.169Z,1.70
2023-05-17T20:12:56.025Z,1.80
2023-05-17T20:14:57.698Z,1.60
2023-05-17T20:16:59.373Z,1.65
2023-05-17T20:19:01.153Z,1.42
2023-05-17T20:21:02.797Z,1.75
2023-05-17T20:23:04.297Z,1.48
2023-05-17T20:25:06.032Z,1.33
2023-05-17T20:27:07.574Z,2.35
2023-05-17T20:29:09.249Z,1.35
2023-05-17T20:31:11.104Z,1.17
2023-05-17T20:33:12.704Z,1.85
2023-05-17T20:35:14.269Z,1.45
2023-05-17T20:37:15.840Z,1.45
2023-05-17T20:39:17.384Z,1.80
2023-05-17T20:41:19.488Z,2.22
2023-05-17T20:43:21.124Z,1.58
2023-05-17T20:45:22.845Z,1.88
2023-05-17T20:47:24.737Z,1.50
2023-05-17T20:49:26.312Z,1.55
2023-05-17T20:51:27.820Z,1.60
2023-05-17T20:53:30.410Z,2.33
2023-05-17T20:55:31.936Z,2.00
2023-05-17T20:57:33.432Z,1.70
2023-05-17T20:59:34.943Z,1.80
2023-05-17T21:01:37.334Z,1.20
2023-05-17T21:03:39.986Z,1.35
2023-05-17T21:05:41.885Z,1.60
2023-05-17T21:07:43.394Z,1.92
2023-05-17T21:09:44.883Z,1.55
2023-05-17T21:11:46.412Z,1.90
2023-05-17T21:13:51.309Z,1.92
2023-05-17T21:15:56.381Z,1.40
2023-05-17T21:17:57.986Z,1.50
2023-05-17T21:19:59.510Z,2.03
2023-05-17T21:22:01.025Z,1.92
2023-05-17T21:24:02.983Z,1.60
2023-05-17T21:26:06.740Z,1.60
2023-05-17T21:28:08.481Z,1.55
2023-05-17T21:30:10.451Z,2.08
2023-05-17T21:32:11.941Z,1.50
2023-05-17T21:34:13.496Z,1.63
2023-05-17T21:36:15.046Z,1.55
2023-05-17T21:38:16.637Z,1.33
2023-05-17T21:40:19.384Z,1.90
2023-05-17T21:42:21.353Z,1.77
2023-05-17T21:44:22.918Z,1.45
2023-05-17T21:46:24.628Z,1.67
2023-05-17T21:48:26.217Z,1.60
2023-05-17T21:50:28.037Z,1.52
2023-05-17T21:52:29.847Z,1.25
2023-05-17T21:54:31.391Z,1.77
2023-05-17T21:56:33.054Z,1.98
2023-05-17T21:58:34.574Z,1.77
2023-05-17T22:00:36.381Z,1.27
2023-05-17T22:02:38.157Z,1.80
2023-05-17T22:04:41.028Z,2.13
2023-05-17T22:06:42.817Z,1.73
2023-05-17T22:08:45.223Z,1.58
2023-05-17T22:10:47.527Z,1.70
2023-05-17T22:12:50.241Z,1.65
2023-05-17T22:14:53.636Z,1.42
2023-05-17T22:16:56.031Z,1.80
2023-05-17T22:19:00.361Z,1.67
2023-05-17T22:21:01.892Z,1.80
2023-05-17T22:23:04.294Z,1.60
2023-05-17T22:25:06.880Z,1.60
2023-05-17T22:27:08.451Z,1.42
2023-05-17T22:29:10.111Z,1.60
2023-05-17T22:31:14.699Z,2.38
2023-05-17T22:33:16.316Z,2.15
2023-05-17T22:35:17.828Z,1.40
2023-05-17T22:37:22.592Z,1.90
2023-05-17T22:39:24.279Z,1.52
2023-05-17T22:41:26.557Z,1.27
2023-05-17T22:43:28.109Z,1.40
2023-05-17T22:45:33.099Z,1.45
2023-05-17T22:47:35.279Z,2.38
2023-05-17T22:49:36.895Z,1.50
2023-05-17T22:51:38.921Z,1.58
2023-05-17T22:53:40.445Z,1.63
2023-05-17T22:55:48.546Z,1.40
2023-05-17T22:57:50.071Z,1.50
2023-05-17T22:59:51.562Z,1.80
2023-05-17T23:01:53.161Z,1.40
2023-05-17T23:03:54.712Z,1.65
2023-05-17T23:06:02.840Z,1.73
2023-05-17T23:08:05.381Z,1.80
2023-05-17T23:10:10.973Z,1.55
2023-05-17T23:12:14.483Z,1.40
2023-05-17T23:14:17.454Z,1.50
2023-05-17T23:16:19.044Z,1.60
2023-05-17T23:18:20.787Z,1.75
2023-05-17T23:20:23.503Z,1.80
2023-05-17T23:22:31.218Z,1.55
2023-05-17T23:24:38.416Z,1.45
2023-05-17T23:26:41.991Z,1.65
2023-05-17T23:28:44.057Z,1.70
2023-05-17T23:30:48.729Z,1.73
2023-05-17T23:32:51.330Z,2.75
2023-05-17T23:35:03.410Z,1.65
2023-05-17T23:37:04.989Z,1.55
2023-05-17T23:39:06.724Z,2.65
2023-05-17T23:41:08.412Z,1.95
2023-05-17T23:43:10.352Z,1.60
2023-05-17T23:45:11.905Z,1.73
2023-05-17T23:47:13.399Z,3.85
2023-05-17T23:49:16.514Z,3.75
2023-05-17T23:51:19.850Z,2.88
2023-05-17T23:53:23.502Z,1.70
2023-05-17T23:55:25.116Z,1.88
2023-05-17T23:57:26.619Z,1.60
2023-05-17T23:59:29.486Z,2.05
